createdAt,value
2023-05-21T00:02:30.318Z,1.90
2023-05-21T00:05:02.452Z,3.93
2023-05-21T00:07:34.459Z,1.47
2023-05-21T00:10:06.395Z,2.33
2023-05-21T00:12:38.519Z,2.40
2023-05-21T00:15:10.525Z,3.50
2023-05-21T00:17:42.440Z,2.23
2023-05-21T00:20:14.546Z,2.40
2023-05-21T00:22:46.596Z,2.47
2023-05-21T00:25:18.559Z,4.97
2023-05-21T00:27:50.516Z,2.17
2023-05-21T00:30:22.387Z,2.63
2023-05-21T00:32:54.548Z,1.77
2023-05-21T00:35:26.798Z,2.17
2023-05-21T00:37:58.910Z,2.77
2023-05-21T00:40:30.849Z,2.53
2023-05-21T00:43:02.926Z,2.73
2023-05-21T00:45:35.034Z,1.87
2023-05-21T00:48:08.001Z,1.87
2023-05-21T00:50:40.031Z,3.50
2023-05-21T00:53:12.009Z,2.60
2023-05-21T00:55:43.868Z,2.10
2023-05-21T00:58:15.796Z,2.83
2023-05-21T01:00:47.797Z,2.73
2023-05-21T01:03:19.808Z,4.57
2023-05-21T01:05:52.211Z,4.03
2023-05-21T01:08:24.142Z,4.47
2023-05-21T01:10:56.012Z,3.03
2023-05-21T01:13:27.856Z,2.30
2023-05-21T01:15:59.741Z,2.47
2023-05-21T01:18:31.679Z,3.50
2023-05-21T01:21:04.206Z,2.50
2023-05-21T01:23:36.168Z,3.13
2023-05-21T01:26:08.953Z,3.23
2023-05-21T01:28:41.231Z,2.33
2023-05-21T01:31:13.234Z,2.37
2023-05-21T01:33:45.766Z,5.60
2023-05-21T01:36:20.101Z,3.60
2023-05-21T01:38:52.485Z,2.20
2023-05-21T01:41:25.002Z,2.73
2023-05-21T01:43:56.946Z,4.00
2023-05-21T01:46:30.413Z,3.23
2023-05-21T01:49:03.319Z,2.33
2023-05-21T01:51:35.352Z,3.40
2023-05-21T01:54:07.239Z,2.43
2023-05-21T01:56:39.117Z,2.40
2023-05-21T01:59:11.014Z,5.10
2023-05-21T02:01:43.060Z,3.50
2023-05-21T02:04:15.012Z,2.50
2023-05-21T02:06:46.904Z,2.60
2023-05-21T02:09:18.798Z,3.10
2023-05-21T02:11:50.693Z,2.57
2023-05-21T02:14:22.657Z,2.43
2023-05-21T02:16:54.528Z,3.43
2023-05-21T02:19:26.497Z,3.17
2023-05-21T02:21:58.432Z,4.67
2023-05-21T02:24:30.354Z,2.43
2023-05-21T02:27:02.241Z,3.80
2023-05-21T02:29:34.126Z,2.77
2023-05-21T02:32:06.041Z,3.20
2023-05-21T02:34:37.935Z,6.20
2023-05-21T02:37:09.868Z,3.30
2023-05-21T02:39:42.004Z,3.67
2023-05-21T02:42:13.877Z,2.87
2023-05-21T02:44:46.798Z,2.97
2023-05-21T02:47:19.057Z,5.33
2023-05-21T02:49:50.986Z,3.17
2023-05-21T02:52:22.831Z,3.00
2023-05-21T02:54:55.060Z,2.27
2023-05-21T02:57:27.708Z,6.53
2023-05-21T02:59:59.557Z,3.83
2023-05-21T03:02:31.947Z,3.50
2023-05-21T03:05:04.341Z,3.27
2023-05-21T03:07:36.424Z,4.53
2023-05-21T03:10:09.194Z,4.53
2023-05-21T03:12:41.098Z,2.70
2023-05-21T03:15:12.981Z,3.67
2023-05-21T03:17:44.929Z,2.67
2023-05-21T03:20:16.906Z,3.03
2023-05-21T03:22:48.895Z,4.40
2023-05-21T03:25:20.871Z,4.60
2023-05-21T03:27:52.724Z,3.40
2023-05-21T03:30:26.299Z,2.63
2023-05-21T03:32:59.923Z,3.50
2023-05-21T03:35:31.993Z,2.97
2023-05-21T03:38:04.081Z,3.17
2023-05-21T03:40:35.911Z,2.83
2023-05-21T03:43:08.183Z,5.37
2023-05-21T03:45:43.538Z,3.77
2023-05-21T03:48:18.693Z,3.13
2023-05-21T03:50:51.127Z,4.80
2023-05-21T03:53:23.030Z,4.83
2023-05-21T03:55:55.040Z,3.27
2023-05-21T03:58:28.910Z,3.30
2023-05-21T04:01:00.882Z,4.17
2023-05-21T04:03:33.196Z,4.10
2023-05-21T04:06:05.279Z,3.70
2023-05-21T04:08:37.161Z,4.10
2023-05-21T04:11:09.020Z,2.87
2023-05-21T04:13:40.920Z,4.60
2023-05-21T04:16:13.111Z,3.70
2023-05-21T04:18:45.698Z,2.80
2023-05-21T04:21:18.067Z,3.40
2023-05-21T04:23:49.908Z,3.87
2023-05-21T04:26:23.487Z,3.23
2023-05-21T04:28:55.941Z,3.13
2023-05-21T04:31:28.758Z,4.17
2023-05-21T04:34:00.742Z,2.83
2023-05-21T04:36:32.639Z,4.87
2023-05-21T04:39:04.520Z,3.50
2023-05-21T04:41:36.656Z,2.97
2023-05-21T04:44:08.984Z,4.80
2023-05-21T04:46:41.964Z,4.33
2023-05-21T04:49:14.132Z,3.40
2023-05-21T04:51:45.994Z,2.70
2023-05-21T04:54:17.880Z,3.40
2023-05-21T04:56:49.721Z,2.73
2023-05-21T04:59:21.670Z,3.37
2023-05-21T05:01:53.548Z,3.27
2023-05-21T05:04:26.276Z,3.60
2023-05-21T05:06:58.165Z,3.67
2023-05-21T05:09:30.339Z,2.77
2023-05-21T05:12:02.315Z,6.10
2023-05-21T05:14:34.271Z,4.03
2023-05-21T05:17:06.410Z,3.03
2023-05-21T05:19:38.278Z,3.80
2023-05-21T05:22:12.364Z,4.73
2023-05-21T05:24:43.680Z,2.93
2023-05-21T05:27:15.533Z,2.30
2023-05-21T05:29:48.074Z,2.97
2023-05-21T05:32:19.978Z,4.33
2023-05-21T05:34:51.919Z,4.27
2023-05-21T05:37:24.275Z,2.87
2023-05-21T05:39:56.142Z,3.53
2023-05-21T05:42:27.991Z,3.47
2023-05-21T05:45:00.926Z,3.20
2023-05-21T05:47:32.821Z,3.87
2023-05-21T05:50:05.738Z,3.43
2023-05-21T05:52:37.682Z,3.40
2023-05-21T05:55:09.580Z,3.00
2023-05-21T05:57:43.783Z,2.87
2023-05-21T06:00:16.900Z,4.53
2023-05-21T06:02:49.919Z,3.17
2023-05-21T06:05:22.171Z,4.43
2023-05-21T06:07:54.905Z,4.17
2023-05-21T06:10:26.799Z,3.17
2023-05-21T06:12:58.671Z,2.37
2023-05-21T06:15:30.576Z,4.40
2023-05-21T06:18:02.594Z,5.43
2023-05-21T06:20:34.617Z,5.87
2023-05-21T06:23:07.856Z,7.03
2023-05-21T06:25:39.924Z,3.70
2023-05-21T06:28:12.717Z,6.57
2023-05-21T06:30:44.726Z,4.13
2023-05-21T06:33:16.716Z,4.40
2023-05-21T06:35:48.894Z,3.97
2023-05-21T06:38:20.814Z,2.70
2023-05-21T06:40:52.690Z,6.60
2023-05-21T06:43:26.738Z,3.30
2023-05-21T06:46:16.500Z,3.63
2023-05-21T06:48:50.030Z,4.27
2023-05-21T06:51:22.001Z,4.37
2023-05-21T06:53:54.039Z,4.00
2023-05-21T06:56:26.407Z,4.33
2023-05-21T06:58:59.543Z,7.37
2023-05-21T07:01:32.071Z,4.97
2023-05-21T07:04:04.363Z,4.70
2023-05-21T07:06:36.527Z,4.97
2023-05-21T07:09:08.940Z,9.00
2023-05-21T07:11:42.496Z,4.70
2023-05-21T07:14:14.814Z,3.53
2023-05-21T07:16:46.833Z,4.47
2023-05-21T07:19:18.810Z,5.20
2023-05-21T07:21:50.772Z,4.40
2023-05-21T07:24:22.557Z,5.23
2023-05-21T07:26:54.683Z,4.63
2023-05-21T07:29:26.785Z,5.63
2023-05-21T07:31:58.859Z,4.63
2023-05-21T07:34:30.746Z,5.70
2023-05-21T07:37:02.678Z,4.73
2023-05-21T07:39:34.508Z,4.40
2023-05-21T07:42:06.808Z,5.20
2023-05-21T07:44:39.246Z,4.63
2023-05-21T07:47:11.532Z,5.10
2023-05-21T07:49:43.548Z,3.80
2023-05-21T07:52:15.502Z,8.00
2023-05-21T07:54:47.326Z,4.13
2023-05-21T07:57:19.588Z,3.97
2023-05-21T08:00:01.956Z,4.57
2023-05-21T08:02:35.085Z,4.63
2023-05-21T08:05:07.841Z,4.00
2023-05-21T08:07:40.439Z,4.13
2023-05-21T08:10:12.532Z,4.33
2023-05-21T08:12:44.838Z,4.33
2023-05-21T08:15:17.041Z,3.87
2023-05-21T08:17:50.087Z,5.97
2023-05-21T08:20:22.872Z,5.30
2023-05-21T08:22:55.100Z,4.83
2023-05-21T08:25:27.425Z,4.33
2023-05-21T08:27:59.893Z,4.27
2023-05-21T08:30:31.980Z,4.43
2023-05-21T08:33:03.929Z,7.60
2023-05-21T08:35:37.051Z,4.90
2023-05-21T08:38:10.893Z,5.30
2023-05-21T08:40:47.360Z,5.70
2023-05-21T08:43:19.403Z,6.93
2023-05-21T08:45:51.857Z,5.13
2023-05-21T08:48:24.325Z,5.43
2023-05-21T08:50:56.211Z,6.53
2023-05-21T08:53:29.783Z,5.27
2023-05-21T08:56:01.991Z,4.80
2023-05-21T08:58:35.548Z,4.67
2023-05-21T09:01:09.144Z,4.80
2023-05-21T09:03:41.630Z,6.13
2023-05-21T09:06:13.655Z,4.90
2023-05-21T09:08:45.796Z,7.47
2023-05-21T09:11:19.356Z,6.80
2023-05-21T09:13:52.911Z,4.87
2023-05-21T09:16:26.489Z,6.53
2023-05-21T09:18:58.536Z,6.20
2023-05-21T09:21:32.049Z,6.00
2023-05-21T09:24:05.846Z,4.67
2023-05-21T09:26:37.762Z,5.37
2023-05-21T09:29:10.439Z,5.50
2023-05-21T09:31:42.956Z,5.73
2023-05-21T09:34:16.416Z,8.67
2023-05-21T09:36:49.881Z,8.27
2023-05-21T09:39:21.798Z,4.47
2023-05-21T09:41:53.704Z,5.27
2023-05-21T09:44:25.562Z,4.67
2023-05-21T09:46:59.854Z,5.10
2023-05-21T09:49:31.870Z,7.07
2023-05-21T09:52:04.190Z,6.23
2023-05-21T09:54:36.027Z,4.70
2023-05-21T09:57:07.877Z,6.10
2023-05-21T09:59:39.755Z,6.60
2023-05-21T10:02:11.792Z,4.47
2023-05-21T10:04:44.042Z,5.60
2023-05-21T10:07:16.130Z,4.63
2023-05-21T10:09:47.944Z,6.77
2023-05-21T10:12:19.806Z,4.87
2023-05-21T10:14:51.866Z,5.20
2023-05-21T10:17:23.838Z,4.60
2023-05-21T10:19:55.653Z,5.27
2023-05-21T10:22:27.522Z,4.70
2023-05-21T10:24:59.383Z,4.40
2023-05-21T10:27:32.408Z,6.07
2023-05-21T10:30:04.804Z,7.80
2023-05-21T10:32:36.728Z,3.93
2023-05-21T10:35:08.643Z,5.50
2023-05-21T10:37:40.597Z,4.67
2023-05-21T10:40:12.470Z,5.20
2023-05-21T10:42:44.304Z,4.67
2023-05-21T10:45:19.278Z,5.93
2023-05-21T10:47:52.862Z,4.07
2023-05-21T10:50:24.584Z,4.67
2023-05-21T10:52:56.436Z,4.70
2023-05-21T10:55:28.305Z,4.27
2023-05-21T10:58:00.157Z,4.80
2023-05-21T11:00:32.019Z,6.03
2023-05-21T11:03:03.950Z,6.30
2023-05-21T11:05:35.942Z,7.30
2023-05-21T11:08:07.768Z,6.70
2023-05-21T11:10:39.962Z,4.77
2023-05-21T11:13:12.112Z,6.83
2023-05-21T11:15:43.975Z,4.87
2023-05-21T11:18:15.832Z,6.50
2023-05-21T11:20:48.143Z,4.30
2023-05-21T11:23:20.713Z,4.60
2023-05-21T11:25:52.619Z,5.53
2023-05-21T11:28:24.464Z,5.20
2023-05-21T11:30:56.337Z,4.63
2023-05-21T11:33:28.161Z,6.93
2023-05-21T11:36:00.085Z,5.57
2023-05-21T11:38:31.903Z,5.97
2023-05-21T11:41:03.738Z,5.33
2023-05-21T11:43:35.616Z,5.80
2023-05-21T11:46:07.520Z,5.10
2023-05-21T11:48:39.530Z,7.10
2023-05-21T11:51:11.412Z,7.17
2023-05-21T11:53:44.355Z,5.93
2023-05-21T11:56:16.438Z,5.50
2023-05-21T11:58:48.273Z,4.50
2023-05-21T12:01:20.109Z,5.43
2023-05-21T12:03:52.050Z,4.70
2023-05-21T12:06:24.184Z,6.93
2023-05-21T12:08:56.136Z,5.57
2023-05-21T12:11:27.998Z,6.23
2023-05-21T12:14:00.109Z,9.87
2023-05-21T12:16:32.232Z,4.53
2023-05-21T12:19:04.086Z,4.63
2023-05-21T12:21:36.118Z,4.80
2023-05-21T12:24:08.079Z,6.87
2023-05-21T12:26:39.964Z,5.43
2023-05-21T12:29:11.873Z,5.93
2023-05-21T12:31:43.879Z,5.50
2023-05-21T12:34:15.719Z,3.93
2023-05-21T12:36:47.573Z,8.67
2023-05-21T12:39:19.468Z,7.47
2023-05-21T12:41:51.318Z,6.03
2023-05-21T12:44:23.350Z,5.70
2023-05-21T12:46:55.198Z,4.97
2023-05-21T12:49:27.155Z,6.37
2023-05-21T12:51:59.111Z,6.23
2023-05-21T12:54:31.078Z,5.27
2023-05-21T12:57:02.979Z,5.33
2023-05-21T12:59:34.869Z,10.03
2023-05-21T13:02:06.742Z,5.77
2023-05-21T13:04:38.624Z,4.13
2023-05-21T13:07:10.524Z,7.60
2023-05-21T13:09:42.392Z,4.57
2023-05-21T13:12:14.263Z,5.77
2023-05-21T13:14:46.141Z,4.37
2023-05-21T13:17:18.052Z,5.27
2023-05-21T13:19:49.933Z,4.63
2023-05-21T13:22:22.005Z,5.43
2023-05-21T13:24:53.864Z,5.27
2023-05-21T13:27:25.707Z,5.17
2023-05-21T13:29:57.885Z,9.80
2023-05-21T13:32:29.939Z,5.93
2023-05-21T13:35:01.956Z,4.33
2023-05-21T13:37:33.920Z,5.77
2023-05-21T13:40:05.863Z,5.07
2023-05-21T13:42:37.713Z,9.47
2023-05-21T13:45:09.666Z,4.73
2023-05-21T13:47:41.584Z,5.37
2023-05-21T13:50:13.822Z,4.63
2023-05-21T13:52:45.909Z,5.17
2023-05-21T13:55:17.844Z,4.87
2023-05-21T13:57:49.723Z,7.57
2023-05-21T14:00:21.581Z,4.97
2023-05-21T14:02:53.607Z,4.17
2023-05-21T14:05:25.547Z,3.93
2023-05-21T14:07:57.434Z,5.83
2023-05-21T14:10:29.295Z,3.83
2023-05-21T14:13:11.311Z,5.33
2023-05-21T14:15:35.153Z,5.97
2023-05-21T14:18:07.367Z,5.10
2023-05-21T14:20:39.546Z,6.80
2023-05-21T14:23:11.392Z,4.47
2023-05-21T14:25:43.298Z,7.73
2023-05-21T14:28:15.154Z,4.33
2023-05-21T14:30:47.106Z,5.27
2023-05-21T14:33:19.057Z,3.07
2023-05-21T14:35:50.990Z,3.93
2023-05-21T14:38:22.891Z,3.63
2023-05-21T14:40:54.715Z,5.90
2023-05-21T14:43:26.676Z,2.70
2023-05-21T14:45:58.594Z,4.23
2023-05-21T14:48:30.619Z,4.93
2023-05-21T14:51:02.629Z,3.93
2023-05-21T14:53:34.856Z,6.07
2023-05-21T14:56:06.728Z,5.77
2023-05-21T14:58:38.860Z,4.70
2023-05-21T15:01:10.942Z,3.87
2023-05-21T15:03:42.884Z,6.03
2023-05-21T15:06:15.021Z,5.67
2023-05-21T15:08:46.967Z,5.47
2023-05-21T15:11:18.856Z,4.40
2023-05-21T15:13:50.785Z,6.80
2023-05-21T15:16:22.643Z,8.13
2023-05-21T15:18:54.676Z,4.37
2023-05-21T15:21:28.079Z,4.03
2023-05-21T15:24:00.244Z,4.43
2023-05-21T15:26:32.132Z,4.33
2023-05-21T15:29:04.270Z,4.47
2023-05-21T15:31:36.251Z,2.57
2023-05-21T15:34:08.213Z,6.13
2023-05-21T15:36:40.226Z,5.63
2023-05-21T15:39:12.122Z,3.40
2023-05-21T15:41:44.013Z,8.47
2023-05-21T15:44:16.878Z,3.63
2023-05-21T15:46:48.754Z,6.43
2023-05-21T15:49:20.745Z,6.43
2023-05-21T15:51:52.859Z,3.93
2023-05-21T15:54:24.766Z,8.27
2023-05-21T15:56:56.684Z,6.83
2023-05-21T15:59:28.533Z,8.70
2023-05-21T16:02:00.460Z,4.97
2023-05-21T16:04:32.339Z,5.57
2023-05-21T16:07:04.248Z,4.57
2023-05-21T16:09:36.231Z,3.60
2023-05-21T16:12:08.085Z,8.07
2023-05-21T16:14:39.993Z,5.87
2023-05-21T16:17:11.996Z,5.77
2023-05-21T16:19:44.312Z,5.93
2023-05-21T16:22:16.226Z,6.50
2023-05-21T16:24:48.138Z,5.30
2023-05-21T16:27:20.065Z,4.37
2023-05-21T16:29:51.971Z,5.53
2023-05-21T16:32:24.110Z,6.70
2023-05-21T16:34:56.262Z,7.40
2023-05-21T16:37:28.153Z,3.87
2023-05-21T16:40:00.074Z,6.37
2023-05-21T16:42:31.953Z,4.53
2023-05-21T16:45:03.797Z,5.67
2023-05-21T16:47:35.751Z,4.97
2023-05-21T16:50:07.654Z,4.23
2023-05-21T16:52:39.541Z,9.70
2023-05-21T16:55:11.467Z,4.87
2023-05-21T16:57:43.322Z,7.00
2023-05-21T17:00:15.182Z,8.50
2023-05-21T17:02:47.238Z,8.55
2023-05-21T17:05:19.806Z,3.45
2023-05-21T17:07:52.306Z,3.95
2023-05-21T17:10:24.786Z,6.25
2023-05-21T17:12:59.776Z,5.35
2023-05-21T17:15:31.096Z,5.62
2023-05-21T17:18:03.007Z,7.57
2023-05-21T17:20:35.111Z,6.70
2023-05-21T17:23:06.958Z,4.20
2023-05-21T17:25:39.550Z,5.87
2023-05-21T17:28:11.770Z,7.53
2023-05-21T17:30:44.284Z,4.62
2023-05-21T17:33:16.208Z,6.07
2023-05-21T17:35:48.198Z,6.20
2023-05-21T17:38:20.071Z,5.30
2023-05-21T17:40:51.924Z,5.57
2023-05-21T17:43:23.817Z,7.03
2023-05-21T17:45:55.720Z,6.20
2023-05-21T17:48:27.625Z,6.17
2023-05-21T17:50:59.485Z,5.80
2023-05-21T17:53:31.343Z,8.90
2023-05-21T17:56:03.170Z,6.00
2023-05-21T17:58:35.093Z,8.17
2023-05-21T18:01:07.009Z,5.20
2023-05-21T18:03:38.954Z,5.20
2023-05-21T18:06:10.815Z,10.03
2023-05-21T18:08:42.664Z,8.50
2023-05-21T18:11:14.651Z,5.63
2023-05-21T18:13:46.730Z,7.70
2023-05-21T18:16:18.634Z,6.20
2023-05-21T18:18:53.071Z,7.73
2023-05-21T18:21:25.148Z,5.57
2023-05-21T18:23:57.033Z,7.90
2023-05-21T18:26:28.900Z,8.70
2023-05-21T18:29:00.853Z,7.83
2023-05-21T18:31:32.754Z,8.20
2023-05-21T18:34:04.695Z,7.57
2023-05-21T18:36:36.537Z,7.90
2023-05-21T18:39:09.134Z,9.17
2023-05-21T18:41:40.967Z,7.53
2023-05-21T18:44:13.021Z,8.30
2023-05-21T18:46:45.113Z,11.40
2023-05-21T18:49:17.152Z,9.47
2023-05-21T18:51:51.267Z,8.13
2023-05-21T18:54:23.111Z,9.53
2023-05-21T18:56:54.944Z,9.57
2023-05-21T18:59:26.873Z,9.07
2023-05-21T19:01:58.827Z,8.47
2023-05-21T19:04:30.899Z,6.63
2023-05-21T19:07:02.762Z,8.87
2023-05-21T19:09:34.930Z,11.23
2023-05-21T19:12:06.797Z,13.23
2023-05-21T19:14:38.671Z,8.60
2023-05-21T19:17:10.713Z,9.13
2023-05-21T19:19:42.538Z,8.40
2023-05-21T19:22:14.470Z,7.37
2023-05-21T19:24:46.308Z,8.60
2023-05-21T19:27:18.353Z,10.57
2023-05-21T19:29:50.451Z,9.00
2023-05-21T19:32:22.329Z,12.77
2023-05-21T19:34:54.235Z,8.03
2023-05-21T19:37:26.306Z,10.40
2023-05-21T19:39:58.208Z,11.83
2023-05-21T19:42:30.149Z,11.70
2023-05-21T19:45:02.048Z,11.07
2023-05-21T19:47:33.951Z,8.33
2023-05-21T19:50:05.862Z,8.70
2023-05-21T19:52:37.814Z,7.63
2023-05-21T19:55:09.708Z,9.70
2023-05-21T19:57:41.557Z,9.67
2023-05-21T20:00:13.374Z,10.10
2023-05-21T20:02:44.722Z,9.97
2023-05-21T20:05:16.587Z,9.53
2023-05-21T20:07:48.451Z,8.87
2023-05-21T20:10:20.327Z,11.77
2023-05-21T20:12:52.161Z,9.10
2023-05-21T20:15:24.060Z,10.90
2023-05-21T20:17:55.984Z,12.07
2023-05-21T20:20:27.918Z,11.03
2023-05-21T20:22:59.734Z,10.47
2023-05-21T20:25:31.607Z,7.13
2023-05-21T20:28:03.435Z,7.63
2023-05-21T20:30:35.295Z,9.97
2023-05-21T20:33:07.135Z,7.70
2023-05-21T20:35:39.201Z,10.73
2023-05-21T20:38:11.317Z,12.03
2023-05-21T20:40:43.128Z,8.37
2023-05-21T20:43:15.259Z,9.63
2023-05-21T20:45:48.677Z,7.90
2023-05-21T20:48:20.671Z,8.97
2023-05-21T20:50:52.605Z,9.50
2023-05-21T20:53:24.436Z,12.30
2023-05-21T20:55:56.284Z,9.20
2023-05-21T20:58:28.147Z,8.03
2023-05-21T21:01:00.045Z,10.53
2023-05-21T21:03:31.939Z,8.80
2023-05-21T21:06:03.818Z,8.37
2023-05-21T21:08:35.704Z,18.03
2023-05-21T21:11:07.521Z,11.10
2023-05-21T21:13:39.372Z,9.97
2023-05-21T21:16:11.226Z,8.07
2023-05-21T21:18:43.185Z,9.33
2023-05-21T21:21:15.007Z,8.93
2023-05-21T21:23:46.837Z,10.33
2023-05-21T21:26:18.709Z,15.57
2023-05-21T21:28:50.758Z,8.53
2023-05-21T21:31:22.594Z,9.00
2023-05-21T21:33:54.478Z,8.97
2023-05-21T21:36:26.309Z,11.13
2023-05-21T21:38:58.196Z,10.07
2023-05-21T21:41:30.003Z,14.03
2023-05-21T21:44:01.871Z,8.60
2023-05-21T21:46:33.803Z,11.13
2023-05-21T21:49:05.731Z,10.50
2023-05-21T21:51:37.578Z,9.23
2023-05-21T21:54:09.427Z,8.83
2023-05-21T21:56:41.270Z,11.07
2023-05-21T21:59:13.157Z,11.93
2023-05-21T22:01:45.313Z,14.20
2023-05-21T22:04:17.285Z,12.73
2023-05-21T22:06:49.559Z,7.77
2023-05-21T22:09:21.519Z,14.03
2023-05-21T22:11:53.564Z,6.93
2023-05-21T22:14:25.397Z,11.93
2023-05-21T22:16:57.282Z,8.27
2023-05-21T22:19:29.387Z,10.07
2023-05-21T22:22:01.374Z,10.93
2023-05-21T22:24:33.559Z,10.07
2023-05-21T22:27:05.488Z,9.73
2023-05-21T22:29:37.883Z,11.53
2023-05-21T22:32:09.967Z,9.93
2023-05-21T22:34:41.894Z,12.33
2023-05-21T22:37:13.976Z,8.57
2023-05-21T22:39:45.991Z,10.67
2023-05-21T22:42:17.849Z,9.40
2023-05-21T22:44:49.707Z,11.47
2023-05-21T22:47:21.624Z,9.47
2023-05-21T22:49:53.555Z,13.50
2023-05-21T22:52:25.499Z,11.83
2023-05-21T22:54:57.670Z,12.53
2023-05-21T22:57:29.871Z,18.20
2023-05-21T23:00:01.809Z,12.27
2023-05-21T23:02:34.377Z,9.93
2023-05-21T23:05:06.461Z,12.00
2023-05-21T23:07:38.523Z,13.73
2023-05-21T23:10:10.467Z,9.67
2023-05-21T23:12:43.221Z,10.13
2023-05-21T23:15:15.798Z,11.87
2023-05-21T23:17:47.696Z,12.67
2023-05-21T23:20:20.103Z,14.03
2023-05-21T23:22:51.993Z,13.47
2023-05-21T23:25:23.851Z,10.77
2023-05-21T23:27:56.154Z,9.87
2023-05-21T23:30:28.491Z,12.50
2023-05-21T23:33:00.519Z,9.33
2023-05-21T23:35:32.967Z,12.37
2023-05-21T23:38:04.866Z,12.47
2023-05-21T23:40:36.881Z,10.53
2023-05-21T23:43:09.051Z,13.17
2023-05-21T23:45:40.962Z,11.50
2023-05-21T23:48:12.979Z,10.83
2023-05-21T23:50:45.028Z,14.77
2023-05-21T23:53:16.902Z,16.47
2023-05-21T23:55:48.771Z,12.60
2023-05-21T23:58:20.635Z,10.53
